KQA461 HKJK-FSIA
Flight info
| Callsign | KQA461 |
|---|---|
| Flight time | 2h 44m |
| Altitude | 31000 |
| Route | ATUDU1D EVOGO UM311 DANEL T118 FS122 T116 UNBED UNBED1D |
| Aircraft | B738/M-SDE2E3FGHIRWXY/LB1 |
Departure
| Time | 2026-04-29 04:41 |
|---|---|
| Airport | Jomo Kenyatta International Airport (HKJK) |
Arrival
| Time | 2026-04-29 07:25 |
|---|---|
| Airport | Seychelles International Airport (FSIA) |
| Time | Latitude | Longitude | Altitude | Speed | Heading |
|---|---|---|---|---|---|
| 2026-04-29 04:17 | -1.32716 | 36.92504 | 5336 ft | 0 kts | 181° |
| 2026-04-29 04:36 | -1.32722 | 36.92504 | 5336 ft | 4 kts | 181° |
| 2026-04-29 04:36 | -1.32754 | 36.92499 | 5336 ft | 5 kts | 223° |
| 2026-04-29 04:36 | -1.32769 | 36.92456 | 5336 ft | 9 kts | 257° |
| 2026-04-29 04:36 | -1.32794 | 36.92379 | 5336 ft | 13 kts | 244° |
| 2026-04-29 04:37 | -1.32851 | 36.92296 | 5336 ft | 12 kts | 241° |
| 2026-04-29 04:37 | -1.32814 | 36.92222 | 5336 ft | 16 kts | 324° |
| 2026-04-29 04:37 | -1.32797 | 36.92144 | 5336 ft | 13 kts | 234° |
| 2026-04-29 04:37 | -1.32854 | 36.92066 | 5336 ft | 16 kts | 234° |
| 2026-04-29 04:38 | -1.32922 | 36.91972 | 5336 ft | 18 kts | 234° |
| 2026-04-29 04:38 | -1.32992 | 36.91874 | 5336 ft | 15 kts | 234° |
| 2026-04-29 04:38 | -1.32978 | 36.91805 | 5336 ft | 11 kts | 326° |
| 2026-04-29 04:38 | -1.32896 | 36.91748 | 5336 ft | 17 kts | 324° |
| 2026-04-29 04:39 | -1.32876 | 36.91734 | 5336 ft | 0 kts | 324° |
| 2026-04-29 04:39 | -1.32870 | 36.91730 | 5336 ft | 3 kts | 324° |
| 2026-04-29 04:39 | -1.32833 | 36.91703 | 5336 ft | 10 kts | 324° |
| 2026-04-29 04:39 | -1.32764 | 36.91664 | 5336 ft | 12 kts | 358° |
| 2026-04-29 04:40 | -1.32699 | 36.91716 | 5336 ft | 16 kts | 53° |
| 2026-04-29 04:40 | -1.32599 | 36.91855 | 5336 ft | 47 kts | 54° |
| 2026-04-29 04:40 | -1.32287 | 36.92282 | 5336 ft | 104 kts | 53° |
| 2026-04-29 04:40 | -1.31759 | 36.93011 | 5336 ft | 153 kts | 53° |
| 2026-04-29 04:41 | -1.31042 | 36.93990 | 5391 ft | 190 kts | 53° |
| 2026-04-29 04:41 | -1.30257 | 36.95070 | 5958 ft | 194 kts | 54° |
| 2026-04-29 04:41 | -1.29524 | 36.96157 | 6703 ft | 192 kts | 63° |
| 2026-04-29 04:41 | -1.29131 | 36.97477 | 7175 ft | 202 kts | 84° |
| 2026-04-29 04:42 | -1.29037 | 36.98920 | 7426 ft | 219 kts | 85° |
| 2026-04-29 04:42 | -1.28917 | 37.00524 | 7663 ft | 238 kts | 86° |
| 2026-04-29 04:42 | -1.28792 | 37.02243 | 7893 ft | 257 kts | 86° |
| 2026-04-29 04:42 | -1.28662 | 37.04039 | 8267 ft | 269 kts | 86° |
| 2026-04-29 04:43 | -1.28523 | 37.05986 | 8669 ft | 284 kts | 86° |
| 2026-04-29 04:43 | -1.28374 | 37.07930 | 9639 ft | 274 kts | 88° |
| 2026-04-29 04:43 | -1.28247 | 37.09797 | 10450 ft | 275 kts | 88° |
| 2026-04-29 04:43 | -1.28110 | 37.11754 | 10789 ft | 291 kts | 88° |
| 2026-04-29 04:44 | -1.27972 | 37.13846 | 10926 ft | 313 kts | 90° |
| 2026-04-29 04:44 | -1.28029 | 37.16094 | 10975 ft | 335 kts | 97° |
| 2026-04-29 04:44 | -1.28341 | 37.18448 | 11360 ft | 345 kts | 101° |
| 2026-04-29 04:44 | -1.28784 | 37.20810 | 12022 ft | 348 kts | 103° |
| 2026-04-29 04:45 | -1.29273 | 37.23190 | 12665 ft | 352 kts | 103° |
| 2026-04-29 04:45 | -1.29760 | 37.25597 | 13285 ft | 355 kts | 103° |
| 2026-04-29 04:45 | -1.30245 | 37.28032 | 13900 ft | 359 kts | 103° |
| 2026-04-29 04:45 | -1.30729 | 37.30489 | 14533 ft | 361 kts | 103° |
| 2026-04-29 04:46 | -1.31212 | 37.32965 | 15125 ft | 365 kts | 102° |
| 2026-04-29 04:46 | -1.31696 | 37.35465 | 15681 ft | 369 kts | 102° |
| 2026-04-29 04:46 | -1.32184 | 37.37992 | 16240 ft | 372 kts | 102° |
| 2026-04-29 04:46 | -1.32674 | 37.40537 | 16799 ft | 375 kts | 102° |
| 2026-04-29 04:47 | -1.33167 | 37.43108 | 17323 ft | 378 kts | 102° |
| 2026-04-29 04:47 | -1.33663 | 37.45698 | 17844 ft | 382 kts | 102° |
| 2026-04-29 04:47 | -1.34165 | 37.48317 | 18355 ft | 385 kts | 102° |
| 2026-04-29 04:47 | -1.34670 | 37.50955 | 18857 ft | 388 kts | 102° |
| 2026-04-29 04:48 | -1.35178 | 37.53610 | 19347 ft | 391 kts | 102° |
| 2026-04-29 04:48 | -1.35698 | 37.56330 | 19836 ft | 394 kts | 102° |
| 2026-04-29 04:48 | -1.36206 | 37.58987 | 20309 ft | 397 kts | 102° |
| 2026-04-29 04:48 | -1.36724 | 37.61698 | 20783 ft | 399 kts | 102° |
| 2026-04-29 04:49 | -1.37255 | 37.64475 | 21239 ft | 402 kts | 102° |
| 2026-04-29 04:49 | -1.37779 | 37.67223 | 21677 ft | 404 kts | 102° |
| 2026-04-29 04:49 | -1.38308 | 37.69992 | 22079 ft | 408 kts | 102° |
| 2026-04-29 04:49 | -1.38841 | 37.72783 | 22524 ft | 409 kts | 102° |
| 2026-04-29 04:50 | -1.39376 | 37.75585 | 22971 ft | 411 kts | 102° |
| 2026-04-29 04:50 | -1.39914 | 37.78403 | 23328 ft | 414 kts | 102° |
| 2026-04-29 04:50 | -1.40454 | 37.81237 | 23696 ft | 417 kts | 102° |
| 2026-04-29 04:50 | -1.40999 | 37.84094 | 24049 ft | 420 kts | 102° |
| 2026-04-29 04:51 | -1.41549 | 37.86979 | 24367 ft | 424 kts | 102° |
| 2026-04-29 04:51 | -1.42103 | 37.89879 | 24725 ft | 426 kts | 102° |
| 2026-04-29 04:51 | -1.42658 | 37.92788 | 25134 ft | 427 kts | 102° |
| 2026-04-29 04:51 | -1.43215 | 37.95708 | 25452 ft | 429 kts | 102° |
| 2026-04-29 04:52 | -1.43777 | 37.98653 | 25757 ft | 432 kts | 102° |
| 2026-04-29 04:52 | -1.44340 | 38.01605 | 26088 ft | 434 kts | 102° |
| 2026-04-29 04:52 | -1.44906 | 38.04576 | 26408 ft | 436 kts | 102° |
| 2026-04-29 04:52 | -1.45476 | 38.07561 | 26711 ft | 438 kts | 102° |
| 2026-04-29 04:53 | -1.46046 | 38.10552 | 27004 ft | 440 kts | 102° |
| 2026-04-29 04:53 | -1.46620 | 38.13564 | 27264 ft | 442 kts | 102° |
| 2026-04-29 04:53 | -1.47197 | 38.16591 | 27517 ft | 445 kts | 102° |
| 2026-04-29 04:53 | -1.47778 | 38.19635 | 27784 ft | 447 kts | 102° |
| 2026-04-29 04:54 | -1.48361 | 38.22694 | 28071 ft | 448 kts | 102° |
| 2026-04-29 04:54 | -1.48944 | 38.25751 | 28456 ft | 447 kts | 102° |
| 2026-04-29 04:54 | -1.49523 | 38.28791 | 28852 ft | 445 kts | 102° |
| 2026-04-29 04:54 | -1.50101 | 38.31825 | 29182 ft | 445 kts | 102° |
| 2026-04-29 04:55 | -1.50682 | 38.34872 | 29498 ft | 445 kts | 102° |
| 2026-04-29 04:55 | -1.51260 | 38.37906 | 29847 ft | 444 kts | 102° |
| 2026-04-29 04:55 | -1.51837 | 38.40933 | 30227 ft | 442 kts | 102° |
| 2026-04-29 04:55 | -1.52412 | 38.43950 | 30524 ft | 442 kts | 102° |
| 2026-04-29 04:56 | -1.52985 | 38.46962 | 30859 ft | 441 kts | 102° |
| 2026-04-29 04:56 | -1.53560 | 38.49977 | 31157 ft | 441 kts | 102° |
| 2026-04-29 04:56 | -1.54133 | 38.52986 | 31454 ft | 441 kts | 102° |
| 2026-04-29 04:56 | -1.54706 | 38.55996 | 31767 ft | 440 kts | 102° |
| 2026-04-29 04:57 | -1.55278 | 38.58998 | 32090 ft | 439 kts | 102° |
| 2026-04-29 04:57 | -1.55849 | 38.62000 | 32340 ft | 439 kts | 102° |
| 2026-04-29 04:57 | -1.56418 | 38.64986 | 32657 ft | 438 kts | 102° |
| 2026-04-29 04:57 | -1.56988 | 38.67977 | 32874 ft | 439 kts | 102° |
| 2026-04-29 04:58 | -1.57561 | 38.70988 | 32898 ft | 440 kts | 102° |
| 2026-04-29 04:58 | -1.58701 | 38.76975 | 32899 ft | 437 kts | 102° |
| 2026-04-29 04:59 | -1.59836 | 38.82940 | 32900 ft | 437 kts | 102° |
| 2026-04-29 04:59 | -1.60973 | 38.88913 | 32901 ft | 438 kts | 102° |
| 2026-04-29 05:00 | -1.62108 | 38.94883 | 32899 ft | 437 kts | 102° |
| 2026-04-29 05:00 | -1.63244 | 39.00853 | 32900 ft | 438 kts | 102° |
| 2026-04-29 05:01 | -1.64190 | 39.05828 | 32899 ft | 439 kts | 102° |
| 2026-04-29 05:01 | -1.65328 | 39.11811 | 32899 ft | 438 kts | 102° |
| 2026-04-29 05:02 | -1.66465 | 39.17792 | 32899 ft | 439 kts | 102° |
| 2026-04-29 05:02 | -1.67604 | 39.23779 | 32900 ft | 438 kts | 102° |
| 2026-04-29 05:03 | -1.68740 | 39.29759 | 32899 ft | 439 kts | 102° |
| 2026-04-29 05:03 | -1.69879 | 39.35750 | 32899 ft | 438 kts | 102° |
| 2026-04-29 05:04 | -1.71014 | 39.41726 | 32899 ft | 438 kts | 102° |
| 2026-04-29 05:04 | -1.72152 | 39.47716 | 32899 ft | 439 kts | 102° |
| 2026-04-29 05:05 | -1.73291 | 39.53701 | 32899 ft | 438 kts | 102° |
| 2026-04-29 05:05 | -1.74419 | 39.59642 | 32899 ft | 437 kts | 102° |
| 2026-04-29 05:06 | -1.75554 | 39.65623 | 32899 ft | 438 kts | 102° |
| 2026-04-29 05:06 | -1.76689 | 39.71607 | 32899 ft | 438 kts | 102° |
| 2026-04-29 05:07 | -1.77826 | 39.77596 | 32899 ft | 438 kts | 102° |
| 2026-04-29 05:07 | -1.78894 | 39.83577 | 32900 ft | 437 kts | 100° |
| 2026-04-29 05:08 | -1.79778 | 39.89586 | 32899 ft | 437 kts | 99° |
| 2026-04-29 05:08 | -1.80690 | 39.95590 | 32899 ft | 438 kts | 100° |
| 2026-04-29 05:09 | -1.81612 | 40.01602 | 32898 ft | 437 kts | 100° |
| 2026-04-29 05:09 | -1.82535 | 40.07607 | 32899 ft | 437 kts | 100° |
| 2026-04-29 05:10 | -1.83458 | 40.13617 | 32899 ft | 438 kts | 100° |
| 2026-04-29 05:10 | -1.84383 | 40.19636 | 32899 ft | 438 kts | 100° |
| 2026-04-29 05:11 | -1.85332 | 40.25655 | 32899 ft | 439 kts | 101° |
| 2026-04-29 05:11 | -1.86307 | 40.31675 | 32899 ft | 438 kts | 101° |
| 2026-04-29 05:12 | -1.87274 | 40.37665 | 32899 ft | 436 kts | 100° |
| 2026-04-29 05:12 | -1.88240 | 40.43661 | 32899 ft | 437 kts | 101° |
| 2026-04-29 05:13 | -1.89209 | 40.49678 | 32899 ft | 439 kts | 101° |
| 2026-04-29 05:13 | -1.90180 | 40.55708 | 32899 ft | 439 kts | 101° |
| 2026-04-29 05:14 | -1.91150 | 40.61720 | 32899 ft | 438 kts | 101° |
| 2026-04-29 05:14 | -1.92120 | 40.67736 | 32899 ft | 438 kts | 101° |
| 2026-04-29 05:15 | -1.93087 | 40.73746 | 32900 ft | 438 kts | 101° |
| 2026-04-29 05:15 | -1.94054 | 40.79753 | 32899 ft | 437 kts | 100° |
| 2026-04-29 05:16 | -1.95020 | 40.85753 | 32899 ft | 437 kts | 100° |
| 2026-04-29 05:16 | -1.95985 | 40.91753 | 32899 ft | 438 kts | 101° |
| 2026-04-29 05:17 | -1.96952 | 40.97768 | 32899 ft | 437 kts | 100° |
| 2026-04-29 05:17 | -1.97915 | 41.03752 | 32900 ft | 436 kts | 100° |
| 2026-04-29 05:18 | -1.98876 | 41.09737 | 32900 ft | 437 kts | 100° |
| 2026-04-29 05:18 | -1.99843 | 41.15744 | 32899 ft | 437 kts | 100° |
| 2026-04-29 05:19 | -2.00806 | 41.21734 | 32899 ft | 436 kts | 100° |
| 2026-04-29 05:19 | -2.01770 | 41.27737 | 32899 ft | 438 kts | 101° |
| 2026-04-29 05:20 | -2.02732 | 41.33736 | 32900 ft | 437 kts | 100° |
| 2026-04-29 05:20 | -2.03695 | 41.39734 | 32899 ft | 436 kts | 100° |
| 2026-04-29 05:21 | -2.04657 | 41.45728 | 32899 ft | 437 kts | 100° |
| 2026-04-29 05:21 | -2.05693 | 41.51722 | 32899 ft | 437 kts | 101° |
| 2026-04-29 05:22 | -2.06752 | 41.57705 | 32899 ft | 437 kts | 101° |
| 2026-04-29 05:22 | -2.07805 | 41.63687 | 32899 ft | 437 kts | 101° |
| 2026-04-29 05:23 | -2.08857 | 41.69673 | 32899 ft | 437 kts | 101° |
| 2026-04-29 05:23 | -2.09907 | 41.75660 | 32899 ft | 438 kts | 101° |
| 2026-04-29 05:24 | -2.10959 | 41.81649 | 32899 ft | 437 kts | 101° |
| 2026-04-29 05:24 | -2.12011 | 41.87635 | 32899 ft | 437 kts | 101° |
| 2026-04-29 05:25 | -2.13061 | 41.93616 | 32899 ft | 437 kts | 101° |
| 2026-04-29 05:25 | -2.14108 | 41.99588 | 32899 ft | 436 kts | 101° |
| 2026-04-29 05:26 | -2.15157 | 42.05574 | 32900 ft | 439 kts | 101° |
| 2026-04-29 05:26 | -2.16214 | 42.11598 | 32899 ft | 439 kts | 101° |
| 2026-04-29 05:27 | -2.17264 | 42.17583 | 32899 ft | 437 kts | 101° |
| 2026-04-29 05:27 | -2.18841 | 42.26587 | 32900 ft | 439 kts | 101° |
| 2026-04-29 05:28 | -2.19891 | 42.32587 | 32899 ft | 438 kts | 101° |
| 2026-04-29 05:28 | -2.20940 | 42.38586 | 32899 ft | 437 kts | 101° |
| 2026-04-29 05:29 | -2.21984 | 42.44571 | 32899 ft | 437 kts | 101° |
| 2026-04-29 05:29 | -2.22931 | 42.50593 | 32900 ft | 439 kts | 101° |
| 2026-04-29 05:30 | -2.23873 | 42.56618 | 32899 ft | 438 kts | 100° |
| 2026-04-29 05:30 | -2.24816 | 42.62624 | 32900 ft | 437 kts | 100° |
| 2026-04-29 05:31 | -2.25760 | 42.68632 | 32900 ft | 438 kts | 100° |
| 2026-04-29 05:31 | -2.26707 | 42.74653 | 32899 ft | 439 kts | 101° |
| 2026-04-29 05:32 | -2.27657 | 42.80685 | 32900 ft | 439 kts | 101° |
| 2026-04-29 05:32 | -2.28608 | 42.86720 | 32899 ft | 440 kts | 101° |
| 2026-04-29 05:33 | -2.29558 | 42.92752 | 32899 ft | 438 kts | 100° |
| 2026-04-29 05:33 | -2.30497 | 42.98717 | 32900 ft | 437 kts | 100° |
| 2026-04-29 05:34 | -2.31439 | 43.04712 | 32900 ft | 437 kts | 100° |
| 2026-04-29 05:34 | -2.32384 | 43.10720 | 32899 ft | 438 kts | 100° |
| 2026-04-29 05:35 | -2.33327 | 43.16724 | 32899 ft | 436 kts | 100° |
| 2026-04-29 05:35 | -2.34273 | 43.22746 | 32899 ft | 435 kts | 100° |
| 2026-04-29 05:36 | -2.35214 | 43.28737 | 32899 ft | 437 kts | 100° |
| 2026-04-29 05:36 | -2.36151 | 43.34702 | 32899 ft | 437 kts | 100° |
| 2026-04-29 05:37 | -2.37097 | 43.40733 | 32899 ft | 436 kts | 100° |
| 2026-04-29 05:37 | -2.38033 | 43.46696 | 32900 ft | 437 kts | 100° |
| 2026-04-29 05:38 | -2.38975 | 43.52699 | 32898 ft | 436 kts | 100° |
| 2026-04-29 05:38 | -2.39913 | 43.58679 | 32899 ft | 435 kts | 100° |
| 2026-04-29 05:39 | -2.40850 | 43.64658 | 32900 ft | 436 kts | 100° |
| 2026-04-29 05:39 | -2.41791 | 43.70657 | 32899 ft | 437 kts | 100° |
| 2026-04-29 05:40 | -2.42733 | 43.76664 | 32899 ft | 437 kts | 100° |
| 2026-04-29 05:40 | -2.43673 | 43.82664 | 32899 ft | 437 kts | 100° |
| 2026-04-29 05:41 | -2.44614 | 43.88684 | 32899 ft | 439 kts | 101° |
| 2026-04-29 05:41 | -2.45556 | 43.94705 | 32898 ft | 437 kts | 100° |
| 2026-04-29 05:42 | -2.46496 | 44.00712 | 32899 ft | 438 kts | 100° |
| 2026-04-29 05:42 | -2.47472 | 44.06709 | 32899 ft | 436 kts | 100° |
| 2026-04-29 05:43 | -2.48281 | 44.11679 | 32899 ft | 435 kts | 100° |
| 2026-04-29 05:43 | -2.49255 | 44.17672 | 32900 ft | 437 kts | 101° |
| 2026-04-29 05:44 | -2.50236 | 44.23710 | 32899 ft | 436 kts | 100° |
| 2026-04-29 05:44 | -2.51206 | 44.29689 | 32899 ft | 437 kts | 101° |
| 2026-04-29 05:45 | -2.52181 | 44.35691 | 32899 ft | 437 kts | 101° |
| 2026-04-29 05:45 | -2.53157 | 44.41692 | 32899 ft | 437 kts | 101° |
| 2026-04-29 05:46 | -2.54130 | 44.47681 | 32900 ft | 437 kts | 101° |
| 2026-04-29 05:46 | -2.55102 | 44.53673 | 32899 ft | 436 kts | 101° |
| 2026-04-29 05:47 | -2.56074 | 44.59662 | 32900 ft | 436 kts | 100° |
| 2026-04-29 05:47 | -2.57043 | 44.65643 | 32899 ft | 436 kts | 100° |
| 2026-04-29 05:48 | -2.58014 | 44.71634 | 32899 ft | 437 kts | 101° |
| 2026-04-29 05:48 | -2.58987 | 44.77636 | 32900 ft | 437 kts | 101° |
| 2026-04-29 05:49 | -2.59957 | 44.83623 | 32899 ft | 436 kts | 100° |
| 2026-04-29 05:49 | -2.60926 | 44.89615 | 32899 ft | 438 kts | 101° |
| 2026-04-29 05:50 | -2.61903 | 44.95649 | 32899 ft | 438 kts | 101° |
| 2026-04-29 05:50 | -2.62875 | 45.01653 | 32900 ft | 437 kts | 101° |
| 2026-04-29 05:51 | -2.63845 | 45.07648 | 32899 ft | 438 kts | 101° |
| 2026-04-29 05:51 | -2.64816 | 45.13655 | 32899 ft | 437 kts | 101° |
| 2026-04-29 05:52 | -2.65785 | 45.19644 | 32899 ft | 435 kts | 100° |
| 2026-04-29 05:52 | -2.66750 | 45.25621 | 32899 ft | 437 kts | 101° |
| 2026-04-29 05:53 | -2.67722 | 45.31633 | 32900 ft | 438 kts | 101° |
| 2026-04-29 05:53 | -2.68693 | 45.37644 | 32900 ft | 438 kts | 101° |
| 2026-04-29 05:54 | -2.69663 | 45.43653 | 32900 ft | 437 kts | 101° |
| 2026-04-29 05:54 | -2.70632 | 45.49655 | 32899 ft | 437 kts | 101° |
| 2026-04-29 05:55 | -2.71593 | 45.55613 | 32899 ft | 437 kts | 101° |
| 2026-04-29 05:55 | -2.72560 | 45.61604 | 32899 ft | 436 kts | 100° |
| 2026-04-29 05:56 | -2.73530 | 45.67624 | 32899 ft | 436 kts | 100° |
| 2026-04-29 05:56 | -2.74490 | 45.73578 | 32899 ft | 436 kts | 101° |
| 2026-04-29 05:57 | -2.75456 | 45.79571 | 32899 ft | 437 kts | 101° |
| 2026-04-29 05:57 | -2.76429 | 45.85610 | 32899 ft | 437 kts | 101° |
| 2026-04-29 05:58 | -2.77387 | 45.91559 | 32899 ft | 436 kts | 100° |
| 2026-04-29 05:58 | -2.78351 | 45.97547 | 32899 ft | 437 kts | 101° |
| 2026-04-29 05:59 | -2.79316 | 46.03548 | 32899 ft | 437 kts | 101° |
| 2026-04-29 05:59 | -2.80280 | 46.09540 | 32899 ft | 436 kts | 101° |
| 2026-04-29 06:00 | -2.81242 | 46.15521 | 32899 ft | 435 kts | 100° |
| 2026-04-29 06:00 | -2.82205 | 46.21508 | 32899 ft | 437 kts | 101° |
| 2026-04-29 06:01 | -2.83170 | 46.27514 | 32899 ft | 437 kts | 101° |
| 2026-04-29 06:01 | -2.84135 | 46.33523 | 32900 ft | 437 kts | 101° |
| 2026-04-29 06:02 | -2.85098 | 46.39519 | 32899 ft | 437 kts | 101° |
| 2026-04-29 06:02 | -2.86063 | 46.45528 | 32899 ft | 438 kts | 101° |
| 2026-04-29 06:03 | -2.87028 | 46.51540 | 32899 ft | 437 kts | 101° |
| 2026-04-29 06:03 | -2.87992 | 46.57545 | 32900 ft | 438 kts | 101° |
| 2026-04-29 06:04 | -2.88957 | 46.63561 | 32899 ft | 437 kts | 101° |
| 2026-04-29 06:04 | -2.89918 | 46.69559 | 32899 ft | 438 kts | 101° |
| 2026-04-29 06:05 | -2.90884 | 46.75585 | 32900 ft | 439 kts | 101° |
| 2026-04-29 06:05 | -2.91846 | 46.81587 | 32899 ft | 436 kts | 101° |
| 2026-04-29 06:06 | -2.92810 | 46.87607 | 32899 ft | 439 kts | 101° |
| 2026-04-29 06:06 | -2.93775 | 46.93632 | 32899 ft | 437 kts | 101° |
| 2026-04-29 06:07 | -2.94733 | 46.99619 | 32899 ft | 437 kts | 101° |
| 2026-04-29 06:07 | -2.95694 | 47.05625 | 32899 ft | 436 kts | 100° |
| 2026-04-29 06:08 | -2.96652 | 47.11616 | 32900 ft | 436 kts | 100° |
| 2026-04-29 06:08 | -2.97610 | 47.17596 | 32899 ft | 436 kts | 100° |
| 2026-04-29 06:09 | -2.98569 | 47.23595 | 32899 ft | 436 kts | 100° |
| 2026-04-29 06:09 | -2.99526 | 47.29594 | 32900 ft | 437 kts | 101° |
| 2026-04-29 06:10 | -3.00486 | 47.35605 | 32899 ft | 437 kts | 101° |
| 2026-04-29 06:10 | -3.01442 | 47.41602 | 32899 ft | 436 kts | 100° |
| 2026-04-29 06:11 | -3.02400 | 47.47595 | 32899 ft | 436 kts | 100° |
| 2026-04-29 06:11 | -3.03359 | 47.53582 | 32899 ft | 436 kts | 100° |
| 2026-04-29 06:12 | -3.04317 | 47.59577 | 32899 ft | 436 kts | 101° |
| 2026-04-29 06:12 | -3.05275 | 47.65568 | 32899 ft | 436 kts | 101° |
| 2026-04-29 06:13 | -3.06229 | 47.71540 | 32899 ft | 438 kts | 101° |
| 2026-04-29 06:13 | -3.07196 | 47.77595 | 32899 ft | 437 kts | 101° |
| 2026-04-29 06:14 | -3.08155 | 47.83579 | 32900 ft | 436 kts | 100° |
| 2026-04-29 06:14 | -3.09113 | 47.89563 | 32899 ft | 435 kts | 100° |
| 2026-04-29 06:15 | -3.10071 | 47.95557 | 32899 ft | 436 kts | 100° |
| 2026-04-29 06:15 | -3.11029 | 48.01560 | 32899 ft | 437 kts | 101° |
| 2026-04-29 06:16 | -3.11989 | 48.07572 | 32899 ft | 437 kts | 101° |
| 2026-04-29 06:16 | -3.12945 | 48.13565 | 32899 ft | 436 kts | 101° |
| 2026-04-29 06:17 | -3.13902 | 48.19566 | 32899 ft | 436 kts | 101° |
| 2026-04-29 06:17 | -3.14857 | 48.25558 | 32899 ft | 436 kts | 100° |
| 2026-04-29 06:18 | -3.15806 | 48.31513 | 32899 ft | 437 kts | 101° |
| 2026-04-29 06:18 | -3.16763 | 48.37524 | 32900 ft | 437 kts | 101° |
| 2026-04-29 06:19 | -3.17717 | 48.43516 | 32899 ft | 436 kts | 100° |
| 2026-04-29 06:19 | -3.18669 | 48.49495 | 32899 ft | 435 kts | 100° |
| 2026-04-29 06:20 | -3.19622 | 48.55485 | 32899 ft | 436 kts | 100° |
| 2026-04-29 06:20 | -3.20573 | 48.61463 | 32900 ft | 435 kts | 100° |
| 2026-04-29 06:21 | -3.21523 | 48.67440 | 32899 ft | 435 kts | 100° |
| 2026-04-29 06:21 | -3.22473 | 48.73417 | 32899 ft | 435 kts | 100° |
| 2026-04-29 06:22 | -3.23423 | 48.79401 | 32899 ft | 436 kts | 100° |
| 2026-04-29 06:22 | -3.24375 | 48.85396 | 32899 ft | 435 kts | 100° |
| 2026-04-29 06:23 | -3.25325 | 48.91379 | 32899 ft | 437 kts | 101° |
| 2026-04-29 06:23 | -3.26118 | 48.96373 | 32899 ft | 437 kts | 101° |
| 2026-04-29 06:24 | -3.27071 | 49.02385 | 32899 ft | 438 kts | 101° |
| 2026-04-29 06:24 | -3.28025 | 49.08399 | 32899 ft | 438 kts | 101° |
| 2026-04-29 06:25 | -3.28977 | 49.14407 | 32900 ft | 436 kts | 101° |
| 2026-04-29 06:25 | -3.29926 | 49.20396 | 32899 ft | 436 kts | 101° |
| 2026-04-29 06:26 | -3.30878 | 49.26408 | 32899 ft | 438 kts | 101° |
| 2026-04-29 06:26 | -3.31830 | 49.32421 | 32900 ft | 436 kts | 101° |
| 2026-04-29 06:27 | -3.32776 | 49.38404 | 32899 ft | 437 kts | 101° |
| 2026-04-29 06:27 | -3.33728 | 49.44420 | 32900 ft | 437 kts | 101° |
| 2026-04-29 06:28 | -3.34678 | 49.50425 | 32899 ft | 436 kts | 100° |
| 2026-04-29 06:28 | -3.35624 | 49.56415 | 32900 ft | 436 kts | 100° |
| 2026-04-29 06:29 | -3.36570 | 49.62402 | 32899 ft | 434 kts | 100° |
| 2026-04-29 06:29 | -3.37513 | 49.68368 | 32899 ft | 434 kts | 100° |
| 2026-04-29 06:30 | -3.38931 | 49.77336 | 32899 ft | 435 kts | 100° |
| 2026-04-29 06:31 | -3.39871 | 49.83308 | 32899 ft | 435 kts | 100° |
| 2026-04-29 06:31 | -3.40814 | 49.89293 | 32899 ft | 435 kts | 100° |
| 2026-04-29 06:32 | -3.41757 | 49.95279 | 32899 ft | 435 kts | 100° |
| 2026-04-29 06:32 | -3.42702 | 50.01284 | 32899 ft | 437 kts | 101° |
| 2026-04-29 06:33 | -3.43649 | 50.07283 | 32899 ft | 436 kts | 100° |
| 2026-04-29 06:33 | -3.44594 | 50.13278 | 32899 ft | 436 kts | 100° |
| 2026-04-29 06:34 | -3.45537 | 50.19267 | 32900 ft | 435 kts | 100° |
| 2026-04-29 06:34 | -3.46477 | 50.25242 | 32899 ft | 434 kts | 100° |
| 2026-04-29 06:35 | -3.47419 | 50.31231 | 32900 ft | 436 kts | 100° |
| 2026-04-29 06:35 | -3.48362 | 50.37208 | 32899 ft | 435 kts | 100° |
| 2026-04-29 06:36 | -3.49306 | 50.43192 | 32899 ft | 435 kts | 100° |
| 2026-04-29 06:36 | -3.50245 | 50.49161 | 32899 ft | 434 kts | 100° |
| 2026-04-29 06:37 | -3.51186 | 50.55142 | 32899 ft | 435 kts | 100° |
| 2026-04-29 06:37 | -3.52126 | 50.61125 | 32899 ft | 434 kts | 100° |
| 2026-04-29 06:38 | -3.53064 | 50.67099 | 32900 ft | 435 kts | 100° |
| 2026-04-29 06:38 | -3.54005 | 50.73088 | 32899 ft | 436 kts | 100° |
| 2026-04-29 06:39 | -3.54947 | 50.79087 | 32899 ft | 436 kts | 100° |
| 2026-04-29 06:39 | -3.55887 | 50.85081 | 32899 ft | 435 kts | 100° |
| 2026-04-29 06:40 | -3.56826 | 50.91070 | 32899 ft | 436 kts | 101° |
| 2026-04-29 06:40 | -3.57766 | 50.97065 | 32899 ft | 436 kts | 100° |
| 2026-04-29 06:41 | -3.58706 | 51.03065 | 32900 ft | 436 kts | 100° |
| 2026-04-29 06:41 | -3.59645 | 51.09059 | 32899 ft | 435 kts | 100° |
| 2026-04-29 06:42 | -3.60580 | 51.15034 | 32899 ft | 435 kts | 100° |
| 2026-04-29 06:42 | -3.61516 | 51.21013 | 32899 ft | 434 kts | 100° |
| 2026-04-29 06:43 | -3.62450 | 51.26986 | 32899 ft | 434 kts | 100° |
| 2026-04-29 06:43 | -3.63383 | 51.32956 | 32899 ft | 435 kts | 100° |
| 2026-04-29 06:44 | -3.64318 | 51.38946 | 32899 ft | 436 kts | 101° |
| 2026-04-29 06:44 | -3.65258 | 51.44961 | 32899 ft | 437 kts | 100° |
| 2026-04-29 06:45 | -3.66193 | 51.50944 | 32899 ft | 435 kts | 100° |
| 2026-04-29 06:45 | -3.67126 | 51.56926 | 32899 ft | 435 kts | 100° |
| 2026-04-29 06:46 | -3.68059 | 51.62908 | 32899 ft | 435 kts | 100° |
| 2026-04-29 06:46 | -3.68992 | 51.68891 | 32899 ft | 435 kts | 100° |
| 2026-04-29 06:47 | -3.69924 | 51.74872 | 32899 ft | 435 kts | 100° |
| 2026-04-29 06:47 | -3.70856 | 51.80855 | 32899 ft | 434 kts | 100° |
| 2026-04-29 06:48 | -3.71787 | 51.86834 | 32899 ft | 435 kts | 100° |
| 2026-04-29 06:48 | -3.72719 | 51.92823 | 32899 ft | 435 kts | 100° |
| 2026-04-29 06:49 | -3.73649 | 51.98802 | 32899 ft | 434 kts | 100° |
| 2026-04-29 06:49 | -3.74578 | 52.04780 | 32900 ft | 435 kts | 100° |
| 2026-04-29 06:50 | -3.75510 | 52.10761 | 32899 ft | 434 kts | 100° |
| 2026-04-29 06:50 | -3.76439 | 52.16737 | 32899 ft | 435 kts | 100° |
| 2026-04-29 06:51 | -3.77368 | 52.22724 | 32899 ft | 436 kts | 100° |
| 2026-04-29 06:51 | -3.78297 | 52.28715 | 32899 ft | 435 kts | 100° |
| 2026-04-29 06:52 | -3.79224 | 52.34697 | 32899 ft | 435 kts | 100° |
| 2026-04-29 06:52 | -3.80147 | 52.40629 | 32899 ft | 433 kts | 101° |
| 2026-04-29 06:53 | -3.81464 | 52.46547 | 32900 ft | 433 kts | 105° |
| 2026-04-29 06:53 | -3.82964 | 52.52397 | 32899 ft | 434 kts | 105° |
| 2026-04-29 06:54 | -3.84434 | 52.58251 | 32899 ft | 433 kts | 105° |
| 2026-04-29 06:54 | -3.85888 | 52.64108 | 32899 ft | 433 kts | 105° |
| 2026-04-29 06:55 | -3.87336 | 52.69969 | 32899 ft | 434 kts | 105° |
| 2026-04-29 06:55 | -3.88784 | 52.75835 | 32899 ft | 434 kts | 105° |
| 2026-04-29 06:56 | -3.90231 | 52.81695 | 32899 ft | 433 kts | 105° |
| 2026-04-29 06:56 | -3.91670 | 52.87535 | 32899 ft | 433 kts | 105° |
| 2026-04-29 06:57 | -3.93110 | 52.93383 | 32899 ft | 434 kts | 105° |
| 2026-04-29 06:57 | -3.94557 | 52.99263 | 32899 ft | 435 kts | 105° |
| 2026-04-29 06:58 | -3.96003 | 53.05141 | 32899 ft | 435 kts | 105° |
| 2026-04-29 06:58 | -3.97447 | 53.11014 | 32899 ft | 434 kts | 105° |
| 2026-04-29 06:59 | -3.98894 | 53.16899 | 32899 ft | 435 kts | 105° |
| 2026-04-29 06:59 | -4.00337 | 53.22773 | 32899 ft | 433 kts | 105° |
| 2026-04-29 07:00 | -4.01774 | 53.28621 | 32899 ft | 432 kts | 104° |
| 2026-04-29 07:00 | -4.03210 | 53.34471 | 32899 ft | 434 kts | 105° |
| 2026-04-29 07:01 | -4.04652 | 53.40346 | 32899 ft | 434 kts | 105° |
| 2026-04-29 07:01 | -4.06091 | 53.46211 | 32899 ft | 433 kts | 105° |
| 2026-04-29 07:02 | -4.07529 | 53.52072 | 32899 ft | 434 kts | 105° |
| 2026-04-29 07:02 | -4.08966 | 53.57929 | 32899 ft | 433 kts | 105° |
| 2026-04-29 07:03 | -4.10161 | 53.62805 | 32899 ft | 433 kts | 105° |
| 2026-04-29 07:03 | -4.11599 | 53.68673 | 32899 ft | 434 kts | 105° |
| 2026-04-29 07:04 | -4.13035 | 53.74533 | 32899 ft | 431 kts | 105° |
| 2026-04-29 07:04 | -4.14459 | 53.80350 | 32899 ft | 429 kts | 105° |
| 2026-04-29 07:05 | -4.15896 | 53.86216 | 32546 ft | 430 kts | 105° |
| 2026-04-29 07:05 | -4.16602 | 53.89102 | 32140 ft | 424 kts | 105° |
| 2026-04-29 07:05 | -4.17299 | 53.91952 | 31657 ft | 421 kts | 105° |
| 2026-04-29 07:05 | -4.17993 | 53.94788 | 31181 ft | 417 kts | 105° |
| 2026-04-29 07:06 | -4.18673 | 53.97568 | 30718 ft | 414 kts | 105° |
| 2026-04-29 07:06 | -4.19356 | 54.00360 | 30257 ft | 411 kts | 105° |
| 2026-04-29 07:06 | -4.20044 | 54.03170 | 29797 ft | 408 kts | 105° |
| 2026-04-29 07:06 | -4.20716 | 54.05922 | 29350 ft | 405 kts | 105° |
| 2026-04-29 07:07 | -4.21375 | 54.08614 | 28912 ft | 402 kts | 105° |
| 2026-04-29 07:07 | -4.22047 | 54.11362 | 28464 ft | 399 kts | 105° |
| 2026-04-29 07:07 | -4.22705 | 54.14058 | 28022 ft | 396 kts | 105° |
| 2026-04-29 07:07 | -4.23358 | 54.16729 | 27581 ft | 394 kts | 105° |
| 2026-04-29 07:08 | -4.24007 | 54.19383 | 27145 ft | 391 kts | 105° |
| 2026-04-29 07:08 | -4.24650 | 54.22016 | 26708 ft | 388 kts | 105° |
| 2026-04-29 07:08 | -4.25289 | 54.24636 | 26271 ft | 385 kts | 105° |
| 2026-04-29 07:08 | -4.25925 | 54.27237 | 25837 ft | 383 kts | 105° |
| 2026-04-29 07:09 | -4.26555 | 54.29816 | 25407 ft | 380 kts | 105° |
| 2026-04-29 07:09 | -4.27179 | 54.32371 | 24980 ft | 377 kts | 105° |
| 2026-04-29 07:09 | -4.27800 | 54.34917 | 24553 ft | 374 kts | 105° |
| 2026-04-29 07:09 | -4.28416 | 54.37441 | 24129 ft | 372 kts | 105° |
| 2026-04-29 07:10 | -4.29028 | 54.39950 | 23704 ft | 369 kts | 105° |
| 2026-04-29 07:10 | -4.29638 | 54.42448 | 23280 ft | 367 kts | 105° |
| 2026-04-29 07:10 | -4.30234 | 54.44882 | 22867 ft | 364 kts | 105° |
| 2026-04-29 07:10 | -4.30841 | 54.47369 | 22442 ft | 361 kts | 105° |
| 2026-04-29 07:11 | -4.31429 | 54.49777 | 22030 ft | 359 kts | 105° |
| 2026-04-29 07:11 | -4.32027 | 54.52231 | 21609 ft | 357 kts | 105° |
| 2026-04-29 07:11 | -4.32614 | 54.54640 | 21196 ft | 354 kts | 105° |
| 2026-04-29 07:11 | -4.33196 | 54.57029 | 20784 ft | 352 kts | 105° |
| 2026-04-29 07:12 | -4.33766 | 54.59372 | 20380 ft | 350 kts | 105° |
| 2026-04-29 07:12 | -4.34348 | 54.61761 | 19968 ft | 347 kts | 105° |
| 2026-04-29 07:12 | -4.34918 | 54.64101 | 19564 ft | 345 kts | 105° |
| 2026-04-29 07:12 | -4.35485 | 54.66431 | 19162 ft | 343 kts | 105° |
| 2026-04-29 07:13 | -4.36049 | 54.68748 | 18762 ft | 341 kts | 105° |
| 2026-04-29 07:13 | -4.36609 | 54.71047 | 18366 ft | 339 kts | 105° |
| 2026-04-29 07:13 | -4.37152 | 54.73340 | 17969 ft | 337 kts | 103° |
| 2026-04-29 07:13 | -4.37496 | 54.75660 | 17576 ft | 336 kts | 98° |
| 2026-04-29 07:14 | -4.37642 | 54.77990 | 17186 ft | 335 kts | 94° |
| 2026-04-29 07:14 | -4.37700 | 54.80320 | 16794 ft | 333 kts | 94° |
| 2026-04-29 07:14 | -4.37761 | 54.82633 | 16408 ft | 331 kts | 94° |
| 2026-04-29 07:14 | -4.37832 | 54.84933 | 16025 ft | 329 kts | 94° |
| 2026-04-29 07:15 | -4.37910 | 54.87217 | 15644 ft | 327 kts | 94° |
| 2026-04-29 07:15 | -4.37991 | 54.89489 | 15264 ft | 325 kts | 94° |
| 2026-04-29 07:15 | -4.38074 | 54.91746 | 14886 ft | 323 kts | 94° |
| 2026-04-29 07:15 | -4.38157 | 54.93988 | 14507 ft | 321 kts | 95° |
| 2026-04-29 07:16 | -4.38241 | 54.96219 | 14131 ft | 320 kts | 95° |
| 2026-04-29 07:16 | -4.38325 | 54.98442 | 13759 ft | 318 kts | 95° |
| 2026-04-29 07:16 | -4.38408 | 55.00653 | 13389 ft | 316 kts | 95° |
| 2026-04-29 07:16 | -4.38491 | 55.02844 | 13024 ft | 314 kts | 95° |
| 2026-04-29 07:17 | -4.38574 | 55.05029 | 12662 ft | 312 kts | 95° |
| 2026-04-29 07:17 | -4.38656 | 55.07195 | 12305 ft | 310 kts | 95° |
| 2026-04-29 07:17 | -4.38776 | 55.09341 | 11949 ft | 307 kts | 100° |
| 2026-04-29 07:17 | -4.39414 | 55.11352 | 11618 ft | 301 kts | 117° |
| 2026-04-29 07:18 | -4.40445 | 55.13160 | 11310 ft | 297 kts | 122° |
| 2026-04-29 07:18 | -4.41559 | 55.14889 | 10970 ft | 295 kts | 124° |
| 2026-04-29 07:18 | -4.42716 | 55.16580 | 10628 ft | 293 kts | 125° |
| 2026-04-29 07:18 | -4.43872 | 55.18248 | 10297 ft | 291 kts | 125° |
| 2026-04-29 07:19 | -4.45011 | 55.19889 | 10187 ft | 281 kts | 126° |
| 2026-04-29 07:19 | -4.46103 | 55.21462 | 10125 ft | 270 kts | 126° |
| 2026-04-29 07:19 | -4.47157 | 55.22977 | 10061 ft | 260 kts | 126° |
| 2026-04-29 07:19 | -4.48192 | 55.24465 | 9743 ft | 264 kts | 126° |
| 2026-04-29 07:20 | -4.49272 | 55.26017 | 8974 ft | 279 kts | 126° |
| 2026-04-29 07:20 | -4.50407 | 55.27647 | 7953 ft | 290 kts | 125° |
| 2026-04-29 07:20 | -4.51572 | 55.29322 | 7115 ft | 289 kts | 126° |
| 2026-04-29 07:20 | -4.52688 | 55.30926 | 6726 ft | 273 kts | 126° |
| 2026-04-29 07:21 | -4.53770 | 55.32479 | 5862 ft | 274 kts | 126° |
| 2026-04-29 07:21 | -4.54874 | 55.34064 | 4845 ft | 280 kts | 126° |
| 2026-04-29 07:21 | -4.55993 | 55.35669 | 3917 ft | 281 kts | 125° |
| 2026-04-29 07:21 | -4.57099 | 55.37260 | 2972 ft | 274 kts | 126° |
| 2026-04-29 07:22 | -4.58167 | 55.38794 | 2388 ft | 261 kts | 126° |
| 2026-04-29 07:22 | -4.59182 | 55.40248 | 2124 ft | 250 kts | 126° |
| 2026-04-29 07:22 | -4.60176 | 55.41671 | 2012 ft | 248 kts | 126° |
| 2026-04-29 07:22 | -4.61163 | 55.43086 | 1999 ft | 247 kts | 126° |
| 2026-04-29 07:23 | -4.62095 | 55.44423 | 1997 ft | 220 kts | 126° |
| 2026-04-29 07:23 | -4.62909 | 55.45592 | 2000 ft | 188 kts | 126° |
| 2026-04-29 07:23 | -4.63626 | 55.46616 | 1605 ft | 177 kts | 126° |
| 2026-04-29 07:23 | -4.64332 | 55.47624 | 1036 ft | 177 kts | 126° |
| 2026-04-29 07:24 | -4.65018 | 55.48651 | 461 ft | 177 kts | 125° |
| 2026-04-29 07:24 | -4.65663 | 55.49613 | 306 ft | 159 kts | 126° |
| 2026-04-29 07:24 | -4.66286 | 55.50506 | 194 ft | 150 kts | 127° |
| 2026-04-29 07:24 | -4.66870 | 55.51339 | 20 ft | 138 kts | 126° |
| 2026-04-29 07:25 | -4.67328 | 55.52003 | 18 ft | 94 kts | 124° |
| 2026-04-29 07:25 | -4.67612 | 55.52414 | 18 ft | 49 kts | 124° |
| 2026-04-29 07:25 | -4.67730 | 55.52590 | 18 ft | 13 kts | 124° |
| 2026-04-29 07:25 | -4.67743 | 55.52608 | 18 ft | 0 kts | 124° |
| 2026-04-29 07:26 | -4.67748 | 55.52613 | 18 ft | 1 kts | 149° |
| 2026-04-29 07:26 | -4.67763 | 55.52627 | 18 ft | 4 kts | 87° |
| 2026-04-29 07:26 | -4.67742 | 55.52625 | 18 ft | 6 kts | 301° |
| 2026-04-29 07:26 | -4.67708 | 55.52571 | 18 ft | 13 kts | 303° |
| 2026-04-29 07:27 | -4.67659 | 55.52497 | 18 ft | 13 kts | 303° |
| 2026-04-29 07:27 | -4.67596 | 55.52406 | 18 ft | 18 kts | 305° |
| 2026-04-29 07:27 | -4.67529 | 55.52311 | 18 ft | 19 kts | 304° |
| 2026-04-29 07:27 | -4.67450 | 55.52193 | 18 ft | 21 kts | 303° |
| 2026-04-29 07:28 | -4.67359 | 55.52063 | 18 ft | 24 kts | 300° |
| 2026-04-29 07:28 | -4.67262 | 55.51917 | 18 ft | 26 kts | 303° |
| 2026-04-29 07:28 | -4.67159 | 55.51765 | 18 ft | 27 kts | 307° |
| 2026-04-29 07:28 | -4.67054 | 55.51613 | 18 ft | 22 kts | 305° |
| 2026-04-29 07:29 | -4.66964 | 55.51484 | 18 ft | 21 kts | 304° |
| 2026-04-29 07:29 | -4.66903 | 55.51383 | 18 ft | 11 kts | 270° |
| 2026-04-29 07:29 | -4.66949 | 55.51331 | 18 ft | 5 kts | 215° |
| 2026-04-29 07:29 | -4.66953 | 55.51328 | 18 ft | 0 kts | 215° |
| 2026-04-29 07:30 | -4.66957 | 55.51326 | 18 ft | 3 kts | 215° |
| 2026-04-29 07:30 | -4.66996 | 55.51298 | 18 ft | 9 kts | 215° |
| 2026-04-29 07:30 | -4.67033 | 55.51287 | 18 ft | 7 kts | 150° |
| 2026-04-29 07:31 | -4.67120 | 55.51286 | 18 ft | 2 kts | 192° |
| 2026-04-29 07:31 | -4.67125 | 55.51283 | 18 ft | 0 kts | 217° |